createdAt,value
2023-05-02T00:00:14.560Z,25.33
2023-05-02T00:02:46.782Z,21.52
2023-05-02T00:05:14.094Z,23.33
2023-05-02T00:07:41.463Z,26.58
2023-05-02T00:10:09.149Z,25.27
2023-05-02T00:12:36.204Z,24.52
2023-05-02T00:15:03.529Z,25.20
2023-05-02T00:17:30.836Z,32.45
2023-05-02T00:19:58.410Z,26.73
2023-05-02T00:22:25.653Z,27.50
2023-05-02T00:24:57.873Z,30.80
2023-05-02T00:27:25.441Z,29.73
2023-05-02T00:29:53.531Z,26.23
2023-05-02T00:32:21.116Z,31.60
2023-05-02T00:34:50.806Z,31.53
2023-05-02T00:37:20.612Z,32.85
2023-05-02T00:39:49.864Z,34.65
2023-05-02T00:42:17.115Z,38.47
2023-05-02T00:44:47.111Z,33.30
2023-05-02T00:47:17.854Z,31.70
2023-05-02T00:49:47.508Z,31.23
2023-05-02T00:52:16.905Z,33.65
2023-05-02T00:54:44.165Z,29.50
2023-05-02T00:57:11.341Z,35.28
2023-05-02T00:59:39.131Z,32.17
2023-05-02T01:02:11.960Z,34.20
2023-05-02T01:04:50.641Z,36.13
2023-05-02T01:07:42.937Z,35.13
2023-05-02T01:10:19.188Z,35.40
2023-05-02T01:13:08.626Z,36.88
2023-05-02T01:15:41.271Z,37.57
2023-05-02T01:18:15.730Z,38.42
2023-05-02T01:20:46.538Z,34.87
2023-05-02T01:24:05.494Z,37.67
2023-05-02T01:26:45.509Z,40.33
2023-05-02T01:29:15.954Z,39.63
2023-05-02T01:31:46.710Z,36.23
2023-05-02T01:34:23.323Z,39.03
2023-05-02T01:36:52.045Z,39.38
2023-05-02T01:39:26.336Z,37.20
2023-05-02T01:41:56.741Z,36.93
2023-05-02T01:44:25.190Z,41.40
2023-05-02T01:46:56.558Z,38.20
2023-05-02T01:49:25.495Z,39.70
2023-05-02T01:51:53.326Z,38.33
2023-05-02T01:54:25.059Z,37.60
2023-05-02T01:56:57.584Z,39.30
2023-05-02T01:59:28.583Z,39.00
2023-05-02T02:01:59.703Z,41.30
2023-05-02T02:04:28.663Z,39.63
2023-05-02T02:07:06.843Z,38.20
2023-05-02T02:09:36.610Z,37.80
2023-05-02T02:12:12.416Z,38.47
2023-05-02T02:14:46.308Z,38.63
2023-05-02T02:17:32.351Z,37.40
2023-05-02T02:20:03.520Z,35.65
2023-05-02T02:22:34.547Z,39.38
2023-05-02T02:25:06.527Z,38.13
2023-05-02T02:27:36.241Z,38.73
2023-05-02T02:30:03.980Z,41.15
2023-05-02T02:32:31.365Z,37.93
2023-05-02T02:34:59.608Z,40.10
2023-05-02T02:37:31.469Z,38.20
2023-05-02T02:40:13.781Z,36.17
2023-05-02T02:42:44.066Z,35.37
2023-05-02T02:45:38.373Z,34.33
2023-05-02T02:48:19.583Z,34.67
2023-05-02T02:51:01.830Z,33.73
2023-05-02T02:54:01.152Z,33.80
2023-05-02T02:56:36.363Z,38.40
2023-05-02T02:59:12.621Z,35.60
2023-05-02T03:01:46.990Z,39.07
2023-05-02T03:04:16.728Z,36.03
2023-05-02T03:06:53.003Z,34.15
2023-05-02T03:09:22.746Z,34.92
2023-05-02T03:11:54.435Z,36.22
2023-05-02T03:14:24.131Z,33.88
2023-05-02T03:16:51.784Z,34.38
2023-05-02T03:19:23.629Z,39.57
2023-05-02T03:21:53.502Z,36.67
2023-05-02T03:24:20.755Z,38.65
2023-05-02T03:26:48.154Z,40.78
2023-05-02T03:29:17.771Z,42.65
2023-05-02T03:31:44.995Z,40.78
2023-05-02T03:34:16.965Z,40.50
2023-05-02T03:36:44.140Z,37.75
2023-05-02T03:39:15.665Z,39.20
2023-05-02T03:41:45.053Z,40.67
2023-05-02T03:44:14.576Z,37.87
2023-05-02T03:46:44.055Z,36.33
2023-05-02T03:49:11.222Z,33.60
2023-05-02T03:51:38.368Z,33.10
2023-05-02T03:54:09.838Z,35.42
2023-05-02T03:56:41.289Z,33.17
2023-05-02T03:59:09.872Z,30.35
2023-05-02T04:01:39.365Z,30.23
2023-05-02T04:04:06.617Z,29.73
2023-05-02T04:06:34.031Z,27.83
2023-05-02T04:09:03.327Z,31.23
2023-05-02T04:11:35.297Z,28.93
2023-05-02T04:14:11.572Z,26.20
2023-05-02T04:16:40.898Z,30.45
2023-05-02T04:19:10.907Z,30.77
2023-05-02T04:21:40.394Z,27.13
2023-05-02T04:24:13.279Z,32.77
2023-05-02T04:26:40.625Z,26.67
2023-05-02T04:29:15.642Z,29.30
2023-05-02T04:31:45.044Z,27.13
2023-05-02T04:34:12.208Z,29.83
2023-05-02T04:36:46.189Z,27.55
2023-05-02T04:39:13.591Z,29.97
2023-05-02T04:41:43.335Z,29.53
2023-05-02T04:44:14.730Z,29.53
2023-05-02T04:46:44.823Z,27.93
2023-05-02T04:49:14.210Z,28.58
2023-05-02T04:51:41.647Z,27.00
2023-05-02T04:54:12.668Z,28.23
2023-05-02T04:56:44.688Z,29.05
2023-05-02T04:59:14.101Z,27.23
2023-05-02T05:01:47.137Z,31.23
2023-05-02T05:04:19.291Z,30.07
2023-05-02T05:06:49.402Z,29.40
2023-05-02T05:09:16.646Z,29.93
2023-05-02T05:11:45.430Z,37.53
2023-05-02T05:14:17.434Z,36.37
2023-05-02T05:16:49.182Z,33.33
2023-05-02T05:19:18.909Z,35.40
2023-05-02T05:21:46.126Z,32.97
2023-05-02T05:24:13.393Z,35.20
2023-05-02T05:26:40.922Z,34.63
2023-05-02T05:29:08.240Z,34.43
2023-05-02T05:31:37.864Z,35.03
2023-05-02T05:34:05.107Z,34.85
2023-05-02T05:36:34.781Z,35.40
2023-05-02T05:39:04.633Z,33.78
2023-05-02T05:41:35.209Z,31.43
2023-05-02T05:44:02.349Z,33.43
2023-05-02T05:46:31.933Z,32.83
2023-05-02T05:48:59.127Z,31.15
2023-05-02T05:51:28.843Z,34.00
2023-05-02T05:53:58.169Z,29.27
2023-05-02T05:56:28.167Z,27.75
2023-05-02T05:58:55.427Z,27.17
2023-05-02T06:01:22.519Z,25.80
2023-05-02T06:03:52.187Z,23.20
2023-05-02T06:06:22.702Z,22.48
2023-05-02T06:08:52.041Z,24.30
2023-05-02T06:11:21.596Z,23.38
2023-05-02T06:13:51.190Z,23.40
2023-05-02T06:16:21.191Z,21.43
2023-05-02T06:18:54.725Z,19.20
2023-05-02T06:21:23.933Z,18.93
2023-05-02T06:23:53.320Z,18.87
2023-05-02T06:26:21.668Z,16.33
2023-05-02T06:28:56.715Z,17.90
2023-05-02T06:31:23.945Z,15.25
2023-05-02T06:33:52.254Z,16.08
2023-05-02T06:36:24.007Z,12.20
2023-05-02T06:38:51.141Z,16.95
2023-05-02T06:41:20.735Z,17.58
2023-05-02T06:43:49.970Z,13.98
2023-05-02T06:46:24.122Z,12.98
2023-05-02T06:48:53.392Z,13.60
2023-05-02T06:51:23.068Z,10.63
2023-05-02T06:53:50.254Z,12.90
2023-05-02T06:56:19.675Z,11.07
2023-05-02T06:58:49.669Z,11.23
2023-05-02T07:01:19.260Z,10.43
2023-05-02T07:03:47.239Z,12.73
2023-05-02T07:06:17.069Z,8.37
2023-05-02T07:08:46.797Z,6.90
2023-05-02T07:11:13.925Z,8.00
2023-05-02T07:13:43.177Z,9.83
2023-05-02T07:16:10.443Z,7.73
2023-05-02T07:18:37.693Z,11.37
2023-05-02T07:21:07.466Z,4.50
2023-05-02T07:23:34.690Z,7.90
2023-05-02T07:26:06.420Z,6.60
2023-05-02T07:28:34.016Z,8.05
2023-05-02T07:31:04.693Z,6.07
2023-05-02T07:33:31.879Z,8.37
2023-05-02T07:36:04.615Z,9.20
2023-05-02T07:38:31.902Z,4.93
2023-05-02T07:41:00.272Z,6.23
2023-05-02T07:43:28.115Z,5.83
2023-05-02T07:45:56.244Z,4.90
2023-05-02T07:48:27.774Z,7.07
2023-05-02T07:50:58.388Z,4.33
2023-05-02T07:53:25.557Z,5.27
2023-05-02T07:55:52.712Z,5.67
2023-05-02T07:58:21.972Z,6.87
2023-05-02T08:00:51.524Z,7.63
2023-05-02T08:03:18.861Z,5.77
2023-05-02T08:05:46.611Z,4.30
2023-05-02T08:08:13.861Z,4.30
2023-05-02T08:10:41.111Z,4.47
2023-05-02T08:13:11.270Z,3.83
2023-05-02T08:15:40.739Z,8.20
2023-05-02T08:18:08.566Z,5.70
2023-05-02T08:20:40.859Z,6.40
2023-05-02T08:23:12.670Z,3.67
2023-05-02T08:25:44.496Z,8.00
2023-05-02T08:28:13.811Z,5.55
2023-05-02T08:30:45.311Z,4.37
2023-05-02T08:33:12.495Z,3.83
2023-05-02T08:35:39.687Z,6.57
2023-05-02T08:38:14.218Z,5.97
2023-05-02T08:40:44.045Z,4.97
2023-05-02T08:43:16.988Z,5.60
2023-05-02T08:45:46.643Z,6.23
2023-05-02T08:48:16.594Z,7.23
2023-05-02T08:50:48.530Z,5.50
2023-05-02T08:53:23.876Z,5.37
2023-05-02T08:55:53.814Z,5.40
2023-05-02T08:58:28.131Z,3.95
2023-05-02T09:01:04.628Z,9.20
2023-05-02T09:03:34.726Z,8.00
2023-05-02T09:06:15.345Z,8.85
2023-05-02T09:08:46.314Z,5.10
2023-05-02T09:11:13.955Z,5.70
2023-05-02T09:13:45.606Z,5.03
2023-05-02T09:16:13.929Z,4.93
2023-05-02T09:18:45.923Z,5.50
2023-05-02T09:21:21.611Z,5.53
2023-05-02T09:23:55.659Z,5.73
2023-05-02T09:26:33.691Z,5.28
2023-05-02T09:29:03.242Z,7.95
2023-05-02T09:31:54.827Z,6.03
2023-05-02T09:34:22.749Z,6.05
2023-05-02T09:36:54.764Z,9.23
2023-05-02T09:39:29.123Z,4.20
2023-05-02T09:42:03.561Z,4.05
2023-05-02T09:44:40.871Z,5.05
2023-05-02T09:47:10.511Z,7.95
2023-05-02T09:49:47.209Z,4.22
2023-05-02T09:52:21.750Z,5.03
2023-05-02T09:54:56.379Z,5.37
2023-05-02T09:57:40.777Z,7.82
2023-05-02T10:00:11.231Z,7.13
2023-05-02T10:02:43.213Z,5.60
2023-05-02T10:05:11.924Z,6.68
2023-05-02T10:07:41.525Z,8.27
2023-05-02T10:10:17.326Z,7.60
2023-05-02T10:12:47.726Z,4.22
2023-05-02T10:15:17.035Z,4.43
2023-05-02T10:17:49.315Z,5.07
2023-05-02T10:20:28.798Z,5.35
2023-05-02T10:22:59.336Z,4.93
2023-05-02T10:25:26.638Z,8.15
2023-05-02T10:27:55.939Z,4.85
2023-05-02T10:30:23.790Z,9.33
2023-05-02T10:32:53.660Z,7.22
2023-05-02T10:35:23.077Z,5.85
2023-05-02T10:37:51.031Z,7.23
2023-05-02T10:40:23.478Z,6.30
2023-05-02T10:42:53.913Z,5.93
2023-05-02T10:45:34.865Z,7.43
2023-05-02T10:48:25.406Z,5.10
2023-05-02T10:50:54.091Z,7.40
2023-05-02T10:53:34.748Z,5.82
2023-05-02T10:56:13.290Z,7.25
2023-05-02T10:58:48.835Z,4.80
2023-05-02T11:01:30.908Z,6.47
2023-05-02T11:03:59.769Z,4.95
2023-05-02T11:06:31.105Z,8.13
2023-05-02T11:09:14.606Z,7.57
2023-05-02T11:11:45.528Z,8.05
2023-05-02T11:14:27.371Z,6.85
2023-05-02T11:17:04.268Z,6.03
2023-05-02T11:19:45.659Z,7.53
2023-05-02T11:22:21.887Z,5.22
2023-05-02T11:24:51.722Z,8.27
2023-05-02T11:27:31.197Z,7.93
2023-05-02T11:30:09.769Z,8.50
2023-05-02T11:32:47.626Z,6.97
2023-05-02T11:35:32.944Z,8.43
2023-05-02T11:38:04.798Z,6.75
2023-05-02T11:40:34.549Z,7.63
2023-05-02T11:43:11.915Z,5.93
2023-05-02T11:45:44.791Z,12.15
2023-05-02T11:48:17.301Z,5.00
2023-05-02T11:50:50.505Z,4.72
2023-05-02T11:53:23.982Z,6.13
2023-05-02T11:55:59.619Z,4.25
2023-05-02T11:58:33.652Z,8.80
2023-05-02T12:01:18.396Z,9.20
2023-05-02T12:03:45.985Z,7.78
2023-05-02T12:06:18.935Z,10.32
2023-05-02T12:08:47.074Z,6.80
2023-05-02T12:11:22.628Z,7.30
2023-05-02T12:13:50.690Z,6.68
2023-05-02T12:16:22.922Z,5.65
2023-05-02T12:18:52.833Z,4.78
2023-05-02T12:21:22.795Z,5.88
2023-05-02T12:23:53.009Z,5.53
2023-05-02T12:26:31.857Z,5.82
2023-05-02T12:28:59.366Z,6.55
2023-05-02T12:31:31.379Z,8.60
2023-05-02T12:34:03.178Z,7.88
2023-05-02T12:36:35.298Z,6.05
2023-05-02T12:39:04.651Z,7.20
2023-05-02T12:41:32.720Z,5.57
2023-05-02T12:44:01.021Z,5.60
2023-05-02T12:46:31.647Z,7.22
2023-05-02T12:49:10.194Z,5.85
2023-05-02T12:51:38.476Z,7.28
2023-05-02T12:54:08.428Z,5.88
2023-05-02T12:56:44.867Z,7.45
2023-05-02T12:59:26.461Z,5.88
2023-05-02T13:02:00.776Z,6.47
2023-05-02T13:04:38.922Z,6.90
2023-05-02T13:07:06.284Z,5.28
2023-05-02T13:09:40.243Z,6.88
2023-05-02T13:12:08.620Z,7.45
2023-05-02T13:14:35.842Z,6.03
2023-05-02T13:17:05.311Z,5.95
2023-05-02T13:19:34.708Z,5.60
2023-05-02T13:22:04.411Z,7.38
2023-05-02T13:24:36.249Z,8.63
2023-05-02T13:27:06.352Z,7.05
2023-05-02T13:29:36.673Z,7.82
2023-05-02T13:32:06.193Z,9.63
2023-05-02T13:34:33.337Z,6.70
2023-05-02T13:37:00.942Z,7.30
2023-05-02T13:39:30.749Z,6.28
2023-05-02T13:42:03.757Z,5.53
2023-05-02T13:44:36.967Z,5.90
2023-05-02T13:47:08.338Z,5.65
2023-05-02T13:49:35.458Z,12.30
2023-05-02T13:52:02.622Z,7.10
2023-05-02T13:54:31.979Z,6.05
2023-05-02T13:57:02.648Z,6.13
2023-05-02T13:59:36.718Z,6.95
2023-05-02T14:02:06.623Z,6.65
2023-05-02T14:04:35.995Z,5.15
2023-05-02T14:07:03.126Z,5.63
2023-05-02T14:09:32.515Z,4.90
2023-05-02T14:12:07.362Z,9.18
2023-05-02T14:14:38.185Z,7.97
2023-05-02T14:17:07.554Z,7.07
2023-05-02T14:19:39.288Z,7.32
2023-05-02T14:22:08.829Z,5.28
2023-05-02T14:24:37.969Z,9.00
2023-05-02T14:27:07.246Z,10.55
2023-05-02T14:29:34.637Z,5.10
2023-05-02T14:32:01.976Z,6.63
2023-05-02T14:34:31.891Z,7.20
2023-05-02T14:37:01.491Z,5.20
2023-05-02T14:39:33.280Z,7.72
2023-05-02T14:42:04.873Z,5.75
2023-05-02T14:44:36.603Z,6.60
2023-05-02T14:47:06.017Z,5.70
2023-05-02T14:49:33.156Z,5.50
2023-05-02T14:52:00.273Z,7.93
2023-05-02T14:54:31.336Z,6.55
2023-05-02T14:57:02.237Z,6.50
2023-05-02T14:59:32.555Z,5.55
2023-05-02T15:01:59.803Z,4.85
2023-05-02T15:04:32.487Z,6.60
2023-05-02T15:07:05.253Z,8.73
2023-05-02T15:09:32.529Z,9.18
2023-05-02T15:12:02.981Z,8.05
2023-05-02T15:14:30.140Z,6.35
2023-05-02T15:16:59.816Z,5.38
2023-05-02T15:19:29.522Z,5.28
2023-05-02T15:21:59.329Z,5.22
2023-05-02T15:24:31.105Z,8.27
2023-05-02T15:27:01.018Z,5.15
2023-05-02T15:29:30.438Z,6.07
2023-05-02T15:31:57.765Z,6.20
2023-05-02T15:34:30.478Z,5.80
2023-05-02T15:37:02.732Z,7.53
2023-05-02T15:39:29.997Z,10.23
2023-05-02T15:41:59.473Z,6.90
2023-05-02T15:44:26.674Z,4.90
2023-05-02T15:46:55.896Z,5.55
2023-05-02T15:49:24.957Z,5.18
2023-05-02T15:51:52.078Z,6.13
2023-05-02T15:54:21.777Z,6.97
2023-05-02T15:56:48.879Z,5.38
2023-05-02T15:59:16.021Z,7.60
2023-05-02T16:01:43.251Z,3.88
2023-05-02T16:04:13.026Z,4.95
2023-05-02T16:06:44.690Z,4.93
2023-05-02T16:09:12.842Z,10.02
2023-05-02T16:11:40.063Z,7.10
2023-05-02T16:14:07.195Z,7.75
2023-05-02T16:16:36.484Z,5.88
2023-05-02T16:19:12.620Z,7.18
2023-05-02T16:21:43.349Z,7.72
2023-05-02T16:24:10.529Z,6.90
2023-05-02T16:26:42.170Z,6.90
2023-05-02T16:29:09.340Z,8.35
2023-05-02T16:31:42.338Z,7.53
2023-05-02T16:34:13.792Z,8.82
2023-05-02T16:36:43.222Z,7.85
2023-05-02T16:39:12.784Z,9.57
2023-05-02T16:41:45.076Z,8.27
2023-05-02T16:44:12.230Z,4.85
2023-05-02T16:46:41.912Z,8.73
2023-05-02T16:49:11.406Z,5.22
2023-05-02T16:51:38.568Z,6.13
2023-05-02T16:54:08.235Z,10.80
2023-05-02T16:56:37.519Z,6.72
2023-05-02T16:59:06.907Z,6.28
2023-05-02T17:01:35.611Z,7.50
2023-05-02T17:04:02.909Z,5.47
2023-05-02T17:06:31.740Z,6.60
2023-05-02T17:08:58.921Z,5.43
2023-05-02T17:11:26.058Z,5.53
2023-05-02T17:13:53.247Z,5.63
2023-05-02T17:16:22.981Z,11.77
2023-05-02T17:18:50.339Z,9.00
2023-05-02T17:21:17.777Z,9.27
2023-05-02T17:23:47.544Z,6.20
2023-05-02T17:26:19.583Z,4.78
2023-05-02T17:28:50.313Z,7.00
2023-05-02T17:31:20.534Z,6.70
2023-05-02T17:33:50.968Z,6.97
2023-05-02T17:36:20.531Z,7.40
2023-05-02T17:38:49.750Z,5.82
2023-05-02T17:41:19.078Z,8.95
2023-05-02T17:43:48.838Z,8.20
2023-05-02T17:46:18.416Z,6.82
2023-05-02T17:48:49.083Z,6.45
2023-05-02T17:51:18.643Z,5.93
2023-05-02T17:53:52.575Z,4.90
2023-05-02T17:56:21.959Z,6.47
2023-05-02T17:58:54.116Z,5.82
2023-05-02T18:01:23.615Z,6.00
2023-05-02T18:03:50.884Z,5.57
2023-05-02T18:06:18.858Z,8.27
2023-05-02T18:08:48.523Z,6.47
2023-05-02T18:11:20.199Z,5.85
2023-05-02T18:13:52.063Z,7.72
2023-05-02T18:16:22.097Z,7.55
2023-05-02T18:18:51.832Z,9.43
2023-05-02T18:21:22.598Z,5.20
2023-05-02T18:23:49.856Z,5.47
2023-05-02T18:26:19.149Z,5.28
2023-05-02T18:28:53.233Z,4.03
2023-05-02T18:31:21.212Z,4.30
2023-05-02T18:33:55.656Z,5.85
2023-05-02T18:36:29.183Z,7.88
2023-05-02T18:39:00.250Z,5.13
2023-05-02T18:41:27.395Z,4.70
2023-05-02T18:44:01.516Z,5.63
2023-05-02T18:46:30.969Z,6.80
2023-05-02T18:49:00.803Z,4.55
2023-05-02T18:51:32.805Z,5.70
2023-05-02T18:54:07.095Z,4.60
2023-05-02T18:56:36.552Z,6.68
2023-05-02T18:59:11.889Z,7.63
2023-05-02T19:01:41.642Z,7.97
2023-05-02T19:04:18.506Z,6.05
2023-05-02T19:06:50.726Z,5.47
2023-05-02T19:09:20.547Z,8.18
2023-05-02T19:11:54.107Z,7.63
2023-05-02T19:14:21.226Z,6.40
2023-05-02T19:16:50.961Z,4.88
2023-05-02T19:19:18.541Z,7.55
2023-05-02T19:21:46.979Z,4.97
2023-05-02T19:24:18.384Z,9.02
2023-05-02T19:26:47.821Z,7.20
2023-05-02T19:29:15.033Z,6.07
2023-05-02T19:31:44.930Z,6.75
2023-05-02T19:34:14.308Z,6.47
2023-05-02T19:36:41.543Z,5.35
2023-05-02T19:39:13.132Z,6.57
2023-05-02T19:41:45.166Z,8.50
2023-05-02T19:44:12.305Z,9.35
2023-05-02T19:46:39.508Z,6.43
2023-05-02T19:49:09.039Z,8.65
2023-05-02T19:51:41.059Z,6.97
2023-05-02T19:54:15.333Z,5.53
2023-05-02T19:56:43.359Z,8.70
2023-05-02T19:59:13.016Z,7.75
2023-05-02T20:01:42.678Z,7.75
2023-05-02T20:04:12.273Z,8.25
2023-05-02T20:06:46.315Z,6.18
2023-05-02T20:09:16.135Z,7.95
2023-05-02T20:11:43.305Z,7.27
2023-05-02T20:14:15.670Z,6.18
2023-05-02T20:16:42.864Z,8.27
2023-05-02T20:19:14.590Z,7.20
2023-05-02T20:21:41.728Z,7.30
2023-05-02T20:24:08.997Z,7.68
2023-05-02T20:26:37.324Z,8.75
2023-05-02T20:29:04.854Z,7.05
2023-05-02T20:31:32.183Z,7.40
2023-05-02T20:34:04.277Z,8.00
2023-05-02T20:36:33.599Z,6.80
2023-05-02T20:39:05.044Z,4.72
2023-05-02T20:41:32.311Z,7.75
2023-05-02T20:44:03.481Z,7.03
2023-05-02T20:46:31.245Z,6.00
2023-05-02T20:49:00.810Z,11.60
2023-05-02T20:51:29.654Z,7.77
2023-05-02T20:54:01.456Z,7.80
2023-05-02T20:56:31.211Z,8.07
2023-05-02T20:58:58.353Z,7.30
2023-05-02T21:01:33.498Z,7.73
2023-05-02T21:04:01.041Z,6.77
2023-05-02T21:06:28.268Z,7.05
2023-05-02T21:08:56.673Z,7.17
2023-05-02T21:11:26.400Z,7.43
2023-05-02T21:13:53.556Z,6.43
2023-05-02T21:16:23.358Z,5.83
2023-05-02T21:18:55.349Z,6.80
2023-05-02T21:21:23.336Z,6.47
2023-05-02T21:23:55.364Z,6.57
2023-05-02T21:26:25.952Z,6.27
2023-05-02T21:28:53.272Z,6.87
2023-05-02T21:31:20.467Z,9.38
2023-05-02T21:33:52.626Z,5.93
2023-05-02T21:36:19.843Z,6.00
2023-05-02T21:38:46.972Z,6.80
2023-05-02T21:41:18.848Z,5.70
2023-05-02T21:43:48.016Z,6.60
2023-05-02T21:46:19.731Z,7.07
2023-05-02T21:48:53.772Z,6.23
2023-05-02T21:51:21.272Z,6.47
2023-05-02T21:53:52.448Z,6.50
2023-05-02T21:56:21.805Z,10.17
2023-05-02T21:58:55.817Z,5.57
2023-05-02T22:01:27.655Z,5.83
2023-05-02T22:03:58.124Z,6.22
2023-05-02T22:06:28.483Z,7.23
2023-05-02T22:08:55.683Z,7.33
2023-05-02T22:11:24.275Z,6.23
2023-05-02T22:13:53.755Z,9.57
2023-05-02T22:16:24.020Z,7.77
2023-05-02T22:18:51.541Z,8.90
2023-05-02T22:21:19.185Z,11.63
2023-05-02T22:23:48.908Z,7.97
2023-05-02T22:26:19.226Z,6.67
2023-05-02T22:28:51.309Z,5.30
2023-05-02T22:31:19.468Z,7.00
2023-05-02T22:33:49.861Z,5.37
2023-05-02T22:36:17.978Z,5.80
2023-05-02T22:38:47.576Z,7.57
2023-05-02T22:41:16.868Z,6.60
2023-05-02T22:43:46.195Z,5.03
2023-05-02T22:46:15.779Z,6.37
2023-05-02T22:48:42.936Z,5.70
2023-05-02T22:51:10.137Z,6.17
2023-05-02T22:53:37.278Z,5.80
2023-05-02T22:56:06.697Z,6.10
2023-05-02T22:58:33.856Z,6.50
2023-05-02T23:01:02.074Z,4.60
2023-05-02T23:03:33.972Z,7.03
2023-05-02T23:06:03.671Z,7.00
2023-05-02T23:08:30.869Z,5.63
2023-05-02T23:11:02.686Z,7.00
2023-05-02T23:13:31.906Z,5.03
2023-05-02T23:16:01.633Z,4.77
2023-05-02T23:18:33.779Z,6.57
2023-05-02T23:21:03.722Z,4.90
2023-05-02T23:23:35.870Z,8.23
2023-05-02T23:26:08.963Z,4.33
2023-05-02T23:28:36.238Z,7.27
2023-05-02T23:31:06.857Z,9.63
2023-05-02T23:33:34.480Z,5.80
2023-05-02T23:36:06.798Z,7.43
2023-05-02T23:38:38.198Z,7.50
2023-05-02T23:41:05.465Z,7.47
2023-05-02T23:43:32.620Z,5.33
2023-05-02T23:46:04.032Z,7.50
2023-05-02T23:48:33.227Z,6.33
2023-05-02T23:51:02.932Z,5.80
2023-05-02T23:53:34.721Z,5.60
2023-05-02T23:56:11.328Z,7.63
2023-05-02T23:58:38.497Z,5.53
